Share

West Wendover, NV

8:27 PM PDT on April 23, 2014 (GMT -0700)
Wendover (KENV) Elev 4239 ft | 40.72 °N, 114.03 °W | Change Station

Current weather conditions updated 12 minutes ago

Clear
Clear
52 °F
Feels Like 52 °F
N
7
Wind Variable Wind from South
Sunrise 5:45 AM
Sunset 7:24 PM
Moon Waning Crescent

Tomorrow is forecast to be Much Warmer than today.

Pressure 30.04 in
Visibility 10.0 miles
Clouds Clear
Dew Point 16 °F
Humidity 24%
Rainfall 0.00 in
Snow Depth Not available.
UV 0 out of 16
Pollen 7.20 out of 12
Air Quality Not available.
Flu Activity Sporadic
METAR KENV 240315Z 17006KT 10SM CLR 11/M09 A3004 RMK AO1

More Conditions Fewer Conditions

Pressure 30.04 in
Visibility 10.0 miles
Clouds Clear
Dew Point 16 °F
Humidity 24%
Rainfall 0.00 in
Snow Depth Not available.
UV 0 out of 16
Pollen 7.20 out of 12
Air Quality Not available.
Flu Activity Sporadic
METAR KENV 240315Z 17006KT 10SM CLR 11/M09 A3004 RMK AO1

More Conditions Fewer Conditions

10-Day Weather Forecast

Almanac

Astronomy

Apr. 23, 2014 Rise Set
Actual Time 5:45 AM PDT 7:24 PM PDT
Civil Twilight 5:16 AM PDT 7:53 PM PDT
Nautical Twilight 4:41 AM PDT 8:28 PM PDT
Astronomical Twilight 4:04 AM PDT 9:06 PM PDT
Moon 2:22 AM PDT (4/23) 1:35 PM PDT (4/23)
Length of Visible Light 14h 36m
Length of Day
13h 38m
Tomorrow will be 2m 27s longer.
Waning Crescent, 30% of the Moon is Illuminated
Today
Waning Crescent
Apr 29
New
May 6
First Quarter
May 14
Full
May 21
Last Quarter

Today's Extremes

State Highs State Lows

Community

  • Balance
    Balance
  • Nestled In
    Nestled In
  • Stunning Sunrise
    Stunning Sunrise
  • spring flowers
    spring flowers
  • Earth Day Spectrum Ove' Blue
    Earth Day Spectrum Ove' Blue

WunderPhotos

Upload Photos

1,704,536 photos uploaded!

WunderBlogs® & News

Nearby

Snow Depth

Station Depth Elevation
Hole-in-mountain 23 in 7900 ft
Dorsey Basin 10 in 8100 ft
Lamoille #3 1 in 7700 ft
Green Mountain 11 in 8000 ft
Corral Canyon 41 in 8500 ft

Coastal Water Temperatures

Place Temperature
No Stations Reporting

Earthquake Activity

City Distance Mag. Time & Date
Tooele, Utah 101 miles 3.2 8:22 PM PDT
2014-04-19
Currant, Nevada 156 miles 3.3 2:41 AM PDT
2014-04-18
Minimum magnitude displayed is 2.5.

Nearby Weather Stations

Station Location Temp. Windchill Dew Point Humidity Wind Precip. Elev Updated Type
MesoWest OLA , Wendover, NV 55 °F - - - North  at  - 0.00 in / hr 4408 ft 7:45 PM PDT MADIS
MesoWest SHAFTR , Oasis, NV 45 °F 45 °F - - North  at  - 0.00 in / hr 5678 ft 7:35 PM PDT MADIS

Show More Stations Show Fewer Stations

What do you think?

We're not finished. Please let us know what you like, what you don't like, and what you are still missing.